sensor_id;sensor_type;location;lat;lon;timestamp;P1;durP1;ratioP1;P2;durP2;ratioP2
3967;SDS011;9221;42.646;23.380;2022-12-20T00:00:43;14.37;;;3.47;;
3967;SDS011;9221;42.646;23.380;2022-12-20T00:03:08;14.90;;;4.30;;
3967;SDS011;9221;42.646;23.380;2022-12-20T00:05:37;20.87;;;4.87;;
3967;SDS011;9221;42.646;23.380;2022-12-20T00:08:04;12.50;;;4.40;;
3967;SDS011;9221;42.646;23.380;2022-12-20T00:10:30;11.30;;;4.07;;
3967;SDS011;9221;42.646;23.380;2022-12-20T00:12:55;11.70;;;3.93;;
3967;SDS011;9221;42.646;23.380;2022-12-20T00:15:21;13.27;;;3.97;;
3967;SDS011;9221;42.646;23.380;2022-12-20T00:17:46;10.67;;;3.17;;
3967;SDS011;9221;42.646;23.380;2022-12-20T00:20:11;13.63;;;4.30;;
3967;SDS011;9221;42.646;23.380;2022-12-20T00:22:37;15.43;;;3.43;;
3967;SDS011;9221;42.646;23.380;2022-12-20T00:25:03;11.83;;;4.10;;
3967;SDS011;9221;42.646;23.380;2022-12-20T00:27:29;13.30;;;4.00;;
3967;SDS011;9221;42.646;23.380;2022-12-20T00:29:54;12.33;;;4.13;;
3967;SDS011;9221;42.646;23.380;2022-12-20T00:32:19;12.90;;;4.00;;
3967;SDS011;9221;42.646;23.380;2022-12-20T00:34:45;13.30;;;4.33;;
3967;SDS011;9221;42.646;23.380;2022-12-20T00:37:10;14.53;;;4.10;;
3967;SDS011;9221;42.646;23.380;2022-12-20T00:39:36;11.50;;;4.00;;
3967;SDS011;9221;42.646;23.380;2022-12-20T00:42:01;19.33;;;3.87;;
3967;SDS011;9221;42.646;23.380;2022-12-20T00:44:27;8.30;;;2.80;;
3967;SDS011;9221;42.646;23.380;2022-12-20T00:46:52;12.47;;;3.73;;
3967;SDS011;9221;42.646;23.380;2022-12-20T00:49:18;10.83;;;3.00;;
3967;SDS011;9221;42.646;23.380;2022-12-20T00:51:43;8.43;;;3.60;;
3967;SDS011;9221;42.646;23.380;2022-12-20T00:54:09;7.90;;;3.03;;
3967;SDS011;9221;42.646;23.380;2022-12-20T00:56:34;14.30;;;4.10;;
3967;SDS011;9221;42.646;23.380;2022-12-20T00:59:00;11.57;;;3.07;;
3967;SDS011;9221;42.646;23.380;2022-12-20T01:01:26;12.63;;;4.20;;
3967;SDS011;9221;42.646;23.380;2022-12-20T01:03:54;15.80;;;4.03;;
3967;SDS011;9221;42.646;23.380;2022-12-20T01:06:20;17.97;;;4.30;;
3967;SDS011;9221;42.646;23.380;2022-12-20T01:08:46;10.00;;;3.20;;
3967;SDS011;9221;42.646;23.380;2022-12-20T01:11:19;19.50;;;4.40;;
3967;SDS011;9221;42.646;23.380;2022-12-20T01:13:47;16.47;;;3.87;;
3967;SDS011;9221;42.646;23.380;2022-12-20T01:16:16;9.03;;;3.20;;
3967;SDS011;9221;42.646;23.380;2022-12-20T01:18:50;11.40;;;3.70;;
3967;SDS011;9221;42.646;23.380;2022-12-20T01:21:18;13.37;;;3.70;;
3967;SDS011;9221;42.646;23.380;2022-12-20T01:23:45;9.87;;;3.30;;
3967;SDS011;9221;42.646;23.380;2022-12-20T01:26:12;8.97;;;3.10;;
3967;SDS011;9221;42.646;23.380;2022-12-20T01:28:40;13.70;;;3.50;;
3967;SDS011;9221;42.646;23.380;2022-12-20T01:31:08;13.37;;;3.60;;
3967;SDS011;9221;42.646;23.380;2022-12-20T01:33:36;9.17;;;3.20;;
3967;SDS011;9221;42.646;23.380;2022-12-20T01:36:02;10.97;;;3.63;;
3967;SDS011;9221;42.646;23.380;2022-12-20T01:38:31;16.20;;;3.50;;
3967;SDS011;9221;42.646;23.380;2022-12-20T01:40:57;17.43;;;4.03;;
3967;SDS011;9221;42.646;23.380;2022-12-20T01:43:22;9.07;;;3.80;;
3967;SDS011;9221;42.646;23.380;2022-12-20T01:45:49;15.50;;;3.63;;
3967;SDS011;9221;42.646;23.380;2022-12-20T01:48:16;13.07;;;3.37;;
3967;SDS011;9221;42.646;23.380;2022-12-20T01:50:45;12.27;;;3.47;;
3967;SDS011;9221;42.646;23.380;2022-12-20T01:53:12;13.43;;;4.00;;
3967;SDS011;9221;42.646;23.380;2022-12-20T01:55:41;13.67;;;3.30;;
3967;SDS011;9221;42.646;23.380;2022-12-20T01:58:07;14.17;;;3.37;;
3967;SDS011;9221;42.646;23.380;2022-12-20T02:00:36;14.60;;;4.97;;
3967;SDS011;9221;42.646;23.380;2022-12-20T02:03:04;12.40;;;3.67;;
3967;SDS011;9221;42.646;23.380;2022-12-20T02:05:33;9.93;;;4.57;;
3967;SDS011;9221;42.646;23.380;2022-12-20T02:08:02;12.83;;;3.33;;
3967;SDS011;9221;42.646;23.380;2022-12-20T02:10:33;11.30;;;3.13;;
3967;SDS011;9221;42.646;23.380;2022-12-20T02:13:42;12.13;;;3.33;;
3967;SDS011;9221;42.646;23.380;2022-12-20T02:16:18;13.53;;;3.90;;
3967;SDS011;9221;42.646;23.380;2022-12-20T02:18:51;12.03;;;4.33;;
3967;SDS011;9221;42.646;23.380;2022-12-20T02:30:19;8.97;;;3.40;;
3967;SDS011;9221;42.646;23.380;2022-12-20T02:35:17;14.87;;;3.83;;
3967;SDS011;9221;42.646;23.380;2022-12-20T02:37:46;12.80;;;3.20;;
3967;SDS011;9221;42.646;23.380;2022-12-20T02:40:13;11.30;;;3.50;;
3967;SDS011;9221;42.646;23.380;2022-12-20T02:42:41;8.73;;;3.47;;
3967;SDS011;9221;42.646;23.380;2022-12-20T02:45:08;18.63;;;4.30;;
3967;SDS011;9221;42.646;23.380;2022-12-20T02:47:58;9.13;;;3.20;;
3967;SDS011;9221;42.646;23.380;2022-12-20T02:50:41;14.60;;;4.40;;
3967;SDS011;9221;42.646;23.380;2022-12-20T02:53:11;10.50;;;3.73;;
3967;SDS011;9221;42.646;23.380;2022-12-20T02:55:48;13.03;;;3.67;;
3967;SDS011;9221;42.646;23.380;2022-12-20T02:59:36;10.43;;;4.43;;
3967;SDS011;9221;42.646;23.380;2022-12-20T03:01:36;18.17;;;3.70;;
3967;SDS011;9221;42.646;23.380;2022-12-20T03:04:05;12.07;;;3.93;;
3967;SDS011;9221;42.646;23.380;2022-12-20T03:06:32;9.60;;;3.20;;
3967;SDS011;9221;42.646;23.380;2022-12-20T03:08:58;12.97;;;3.70;;
3967;SDS011;9221;42.646;23.380;2022-12-20T03:11:23;12.93;;;4.13;;
3967;SDS011;9221;42.646;23.380;2022-12-20T03:13:49;16.37;;;5.00;;
3967;SDS011;9221;42.646;23.380;2022-12-20T03:16:14;11.90;;;4.43;;
3967;SDS011;9221;42.646;23.380;2022-12-20T03:18:40;10.70;;;3.73;;
3967;SDS011;9221;42.646;23.380;2022-12-20T03:21:05;18.03;;;4.43;;
3967;SDS011;9221;42.646;23.380;2022-12-20T03:23:31;18.47;;;5.27;;
3967;SDS011;9221;42.646;23.380;2022-12-20T03:25:57;14.47;;;4.57;;
3967;SDS011;9221;42.646;23.380;2022-12-20T03:28:22;14.70;;;4.23;;
3967;SDS011;9221;42.646;23.380;2022-12-20T03:30:47;10.17;;;4.23;;
3967;SDS011;9221;42.646;23.380;2022-12-20T03:33:14;19.07;;;4.83;;
3967;SDS011;9221;42.646;23.380;2022-12-20T03:35:39;18.63;;;5.30;;
3967;SDS011;9221;42.646;23.380;2022-12-20T03:38:05;14.73;;;4.23;;
3967;SDS011;9221;42.646;23.380;2022-12-20T03:40:30;13.77;;;4.50;;
3967;SDS011;9221;42.646;23.380;2022-12-20T03:42:55;12.23;;;4.43;;
3967;SDS011;9221;42.646;23.380;2022-12-20T03:45:21;17.33;;;4.97;;
3967;SDS011;9221;42.646;23.380;2022-12-20T03:47:46;15.10;;;4.73;;
3967;SDS011;9221;42.646;23.380;2022-12-20T03:50:11;13.43;;;5.07;;
3967;SDS011;9221;42.646;23.380;2022-12-20T03:52:37;17.53;;;6.37;;
3967;SDS011;9221;42.646;23.380;2022-12-20T03:55:03;21.10;;;4.53;;
3967;SDS011;9221;42.646;23.380;2022-12-20T03:57:29;12.90;;;4.50;;
3967;SDS011;9221;42.646;23.380;2022-12-20T03:59:54;9.43;;;4.13;;
3967;SDS011;9221;42.646;23.380;2022-12-20T04:02:20;18.53;;;5.10;;
3967;SDS011;9221;42.646;23.380;2022-12-20T04:04:46;16.80;;;5.00;;
3967;SDS011;9221;42.646;23.380;2022-12-20T04:07:11;17.37;;;4.67;;
3967;SDS011;9221;42.646;23.380;2022-12-20T04:09:37;9.80;;;3.70;;
3967;SDS011;9221;42.646;23.380;2022-12-20T04:12:03;21.50;;;4.10;;
3967;SDS011;9221;42.646;23.380;2022-12-20T04:14:28;15.90;;;5.27;;
3967;SDS011;9221;42.646;23.380;2022-12-20T04:16:54;11.50;;;4.33;;
3967;SDS011;9221;42.646;23.380;2022-12-20T04:19:19;15.60;;;6.10;;
3967;SDS011;9221;42.646;23.380;2022-12-20T04:21:44;16.70;;;4.37;;
3967;SDS011;9221;42.646;23.380;2022-12-20T04:24:10;12.10;;;4.90;;
3967;SDS011;9221;42.646;23.380;2022-12-20T04:26:36;14.50;;;3.87;;
3967;SDS011;9221;42.646;23.380;2022-12-20T04:29:01;17.87;;;3.97;;
3967;SDS011;9221;42.646;23.380;2022-12-20T04:31:27;14.37;;;4.40;;
3967;SDS011;9221;42.646;23.380;2022-12-20T04:33:52;20.80;;;4.80;;
3967;SDS011;9221;42.646;23.380;2022-12-20T04:36:18;22.63;;;5.80;;
3967;SDS011;9221;42.646;23.380;2022-12-20T04:38:43;19.33;;;4.20;;
3967;SDS011;9221;42.646;23.380;2022-12-20T04:41:08;21.23;;;6.17;;
3967;SDS011;9221;42.646;23.380;2022-12-20T04:43:34;7.70;;;3.33;;
3967;SDS011;9221;42.646;23.380;2022-12-20T04:46:00;22.10;;;5.77;;
3967;SDS011;9221;42.646;23.380;2022-12-20T04:48:26;16.13;;;4.80;;
3967;SDS011;9221;42.646;23.380;2022-12-20T04:50:52;17.30;;;5.13;;
3967;SDS011;9221;42.646;23.380;2022-12-20T04:53:19;18.60;;;5.10;;
3967;SDS011;9221;42.646;23.380;2022-12-20T04:56:03;22.23;;;5.57;;
3967;SDS011;9221;42.646;23.380;2022-12-20T04:58:29;12.50;;;4.70;;
3967;SDS011;9221;42.646;23.380;2022-12-20T05:00:55;19.70;;;4.87;;
3967;SDS011;9221;42.646;23.380;2022-12-20T05:03:21;15.40;;;5.20;;
3967;SDS011;9221;42.646;23.380;2022-12-20T05:05:48;19.10;;;6.37;;
3967;SDS011;9221;42.646;23.380;2022-12-20T05:08:14;22.53;;;5.43;;
3967;SDS011;9221;42.646;23.380;2022-12-20T05:10:39;13.90;;;4.87;;
3967;SDS011;9221;42.646;23.380;2022-12-20T05:13:05;12.57;;;5.43;;
3967;SDS011;9221;42.646;23.380;2022-12-20T05:15:32;21.27;;;5.60;;
3967;SDS011;9221;42.646;23.380;2022-12-20T05:17:58;14.73;;;5.53;;
3967;SDS011;9221;42.646;23.380;2022-12-20T05:20:28;19.13;;;5.33;;
3967;SDS011;9221;42.646;23.380;2022-12-20T05:22:55;14.80;;;5.30;;
3967;SDS011;9221;42.646;23.380;2022-12-20T05:25:40;17.07;;;6.23;;
3967;SDS011;9221;42.646;23.380;2022-12-20T05:28:27;17.33;;;5.70;;
3967;SDS011;9221;42.646;23.380;2022-12-20T05:30:53;12.60;;;5.30;;
3967;SDS011;9221;42.646;23.380;2022-12-20T05:33:19;19.63;;;5.50;;
3967;SDS011;9221;42.646;23.380;2022-12-20T05:35:44;17.70;;;6.27;;
3967;SDS011;9221;42.646;23.380;2022-12-20T05:38:09;22.97;;;6.63;;
3967;SDS011;9221;42.646;23.380;2022-12-20T05:40:35;25.00;;;7.67;;
3967;SDS011;9221;42.646;23.380;2022-12-20T05:43:00;17.33;;;5.30;;
3967;SDS011;9221;42.646;23.380;2022-12-20T05:45:26;17.70;;;5.00;;
3967;SDS011;9221;42.646;23.380;2022-12-20T05:47:52;19.83;;;6.30;;
3967;SDS011;9221;42.646;23.380;2022-12-20T05:50:17;15.50;;;5.20;;
3967;SDS011;9221;42.646;23.380;2022-12-20T05:52:43;21.00;;;5.73;;
3967;SDS011;9221;42.646;23.380;2022-12-20T05:55:08;25.20;;;6.10;;
3967;SDS011;9221;42.646;23.380;2022-12-20T05:57:34;22.57;;;6.63;;
3967;SDS011;9221;42.646;23.380;2022-12-20T06:00:00;20.83;;;6.77;;
3967;SDS011;9221;42.646;23.380;2022-12-20T06:02:26;53.80;;;7.40;;
3967;SDS011;9221;42.646;23.380;2022-12-20T06:04:51;22.53;;;6.93;;
3967;SDS011;9221;42.646;23.380;2022-12-20T06:07:16;18.37;;;5.60;;
3967;SDS011;9221;42.646;23.380;2022-12-20T06:09:43;21.47;;;7.90;;
3967;SDS011;9221;42.646;23.380;2022-12-20T06:12:08;26.53;;;6.40;;
3967;SDS011;9221;42.646;23.380;2022-12-20T06:14:34;22.70;;;6.20;;
3967;SDS011;9221;42.646;23.380;2022-12-20T06:16:59;23.70;;;6.33;;
3967;SDS011;9221;42.646;23.380;2022-12-20T06:19:25;20.83;;;6.20;;
3967;SDS011;9221;42.646;23.380;2022-12-20T06:21:50;18.90;;;6.30;;
3967;SDS011;9221;42.646;23.380;2022-12-20T06:24:16;25.43;;;6.30;;
3967;SDS011;9221;42.646;23.380;2022-12-20T06:26:41;24.07;;;6.20;;
3967;SDS011;9221;42.646;23.380;2022-12-20T06:29:06;21.97;;;5.90;;
3967;SDS011;9221;42.646;23.380;2022-12-20T06:31:34;18.27;;;6.47;;
3967;SDS011;9221;42.646;23.380;2022-12-20T06:33:59;22.03;;;6.37;;
3967;SDS011;9221;42.646;23.380;2022-12-20T06:36:25;23.00;;;6.60;;
3967;SDS011;9221;42.646;23.380;2022-12-20T06:38:50;18.00;;;5.10;;
3967;SDS011;9221;42.646;23.380;2022-12-20T06:41:16;20.70;;;6.03;;
3967;SDS011;9221;42.646;23.380;2022-12-20T06:43:41;16.27;;;5.10;;
3967;SDS011;9221;42.646;23.380;2022-12-20T06:46:07;21.07;;;6.60;;
3967;SDS011;9221;42.646;23.380;2022-12-20T06:48:32;26.67;;;6.93;;
3967;SDS011;9221;42.646;23.380;2022-12-20T06:50:58;15.57;;;4.97;;
3967;SDS011;9221;42.646;23.380;2022-12-20T06:53:23;21.87;;;6.43;;
3967;SDS011;9221;42.646;23.380;2022-12-20T06:55:49;21.50;;;6.37;;
3967;SDS011;9221;42.646;23.380;2022-12-20T06:58:15;16.30;;;4.77;;
3967;SDS011;9221;42.646;23.380;2022-12-20T07:00:44;14.73;;;5.03;;
3967;SDS011;9221;42.646;23.380;2022-12-20T07:03:10;26.67;;;7.10;;
3967;SDS011;9221;42.646;23.380;2022-12-20T07:05:35;15.03;;;5.50;;
3967;SDS011;9221;42.646;23.380;2022-12-20T07:08:01;16.77;;;5.80;;
3967;SDS011;9221;42.646;23.380;2022-12-20T07:10:28;22.53;;;6.20;;
3967;SDS011;9221;42.646;23.380;2022-12-20T07:12:54;19.60;;;6.80;;
3967;SDS011;9221;42.646;23.380;2022-12-20T07:15:20;24.67;;;7.93;;
3967;SDS011;9221;42.646;23.380;2022-12-20T07:17:46;22.80;;;6.90;;
3967;SDS011;9221;42.646;23.380;2022-12-20T07:20:11;22.63;;;5.13;;
3967;SDS011;9221;42.646;23.380;2022-12-20T07:22:37;23.23;;;7.23;;
3967;SDS011;9221;42.646;23.380;2022-12-20T07:25:03;15.87;;;6.60;;
3967;SDS011;9221;42.646;23.380;2022-12-20T07:27:28;20.47;;;6.20;;
3967;SDS011;9221;42.646;23.380;2022-12-20T07:29:54;23.97;;;6.50;;
3967;SDS011;9221;42.646;23.380;2022-12-20T07:32:19;19.20;;;6.67;;
3967;SDS011;9221;42.646;23.380;2022-12-20T07:34:45;19.33;;;6.17;;
3967;SDS011;9221;42.646;23.380;2022-12-20T07:37:10;26.40;;;7.73;;
3967;SDS011;9221;42.646;23.380;2022-12-20T07:39:35;16.33;;;5.03;;
3967;SDS011;9221;42.646;23.380;2022-12-20T07:42:01;19.33;;;5.03;;
3967;SDS011;9221;42.646;23.380;2022-12-20T07:44:26;9.70;;;3.80;;
3967;SDS011;9221;42.646;23.380;2022-12-20T07:46:52;11.67;;;4.67;;
3967;SDS011;9221;42.646;23.380;2022-12-20T07:49:17;18.00;;;4.67;;
3967;SDS011;9221;42.646;23.380;2022-12-20T07:51:44;13.93;;;4.37;;
3967;SDS011;9221;42.646;23.380;2022-12-20T07:54:16;12.63;;;4.27;;
3967;SDS011;9221;42.646;23.380;2022-12-20T07:56:47;11.10;;;4.10;;
3967;SDS011;9221;42.646;23.380;2022-12-20T07:59:16;19.37;;;4.70;;
3967;SDS011;9221;42.646;23.380;2022-12-20T08:01:45;13.47;;;4.63;;
3967;SDS011;9221;42.646;23.380;2022-12-20T08:04:13;13.90;;;4.90;;
3967;SDS011;9221;42.646;23.380;2022-12-20T08:06:42;14.90;;;4.60;;
3967;SDS011;9221;42.646;23.380;2022-12-20T08:09:07;16.17;;;5.17;;
3967;SDS011;9221;42.646;23.380;2022-12-20T08:11:37;16.07;;;5.67;;
3967;SDS011;9221;42.646;23.380;2022-12-20T08:14:04;19.27;;;5.37;;
3967;SDS011;9221;42.646;23.380;2022-12-20T08:16:32;14.20;;;4.87;;
3967;SDS011;9221;42.646;23.380;2022-12-20T08:18:58;12.23;;;4.57;;
3967;SDS011;9221;42.646;23.380;2022-12-20T08:21:23;15.10;;;5.27;;
3967;SDS011;9221;42.646;23.380;2022-12-20T08:23:49;14.13;;;5.00;;
3967;SDS011;9221;42.646;23.380;2022-12-20T08:26:14;12.37;;;5.27;;
3967;SDS011;9221;42.646;23.380;2022-12-20T08:28:40;9.43;;;4.50;;
3967;SDS011;9221;42.646;23.380;2022-12-20T08:31:07;20.50;;;4.57;;
3967;SDS011;9221;42.646;23.380;2022-12-20T08:33:34;14.43;;;4.73;;
3967;SDS011;9221;42.646;23.380;2022-12-20T08:36:01;13.03;;;4.50;;
3967;SDS011;9221;42.646;23.380;2022-12-20T08:38:28;14.00;;;4.87;;
3967;SDS011;9221;42.646;23.380;2022-12-20T08:41:04;11.83;;;4.37;;
3967;SDS011;9221;42.646;23.380;2022-12-20T08:43:35;15.40;;;4.50;;
3967;SDS011;9221;42.646;23.380;2022-12-20T08:46:01;12.67;;;4.17;;
3967;SDS011;9221;42.646;23.380;2022-12-20T08:48:27;12.40;;;4.50;;
3967;SDS011;9221;42.646;23.380;2022-12-20T08:50:53;19.87;;;4.33;;
3967;SDS011;9221;42.646;23.380;2022-12-20T08:53:23;15.83;;;4.37;;
3967;SDS011;9221;42.646;23.380;2022-12-20T08:55:48;10.80;;;5.00;;
3967;SDS011;9221;42.646;23.380;2022-12-20T08:58:14;12.97;;;4.30;;
3967;SDS011;9221;42.646;23.380;2022-12-20T09:00:39;15.03;;;4.67;;
3967;SDS011;9221;42.646;23.380;2022-12-20T09:03:05;10.80;;;4.37;;
3967;SDS011;9221;42.646;23.380;2022-12-20T09:05:32;14.70;;;4.80;;
3967;SDS011;9221;42.646;23.380;2022-12-20T09:07:57;12.53;;;4.33;;
3967;SDS011;9221;42.646;23.380;2022-12-20T09:10:23;10.13;;;3.90;;
3967;SDS011;9221;42.646;23.380;2022-12-20T09:12:48;14.30;;;5.00;;
3967;SDS011;9221;42.646;23.380;2022-12-20T09:15:13;14.43;;;4.27;;
3967;SDS011;9221;42.646;23.380;2022-12-20T09:17:39;11.43;;;4.00;;
3967;SDS011;9221;42.646;23.380;2022-12-20T09:20:04;12.80;;;4.33;;
3967;SDS011;9221;42.646;23.380;2022-12-20T09:22:30;18.90;;;4.30;;
3967;SDS011;9221;42.646;23.380;2022-12-20T09:24:56;17.43;;;4.30;;
3967;SDS011;9221;42.646;23.380;2022-12-20T09:27:22;8.90;;;3.57;;
3967;SDS011;9221;42.646;23.380;2022-12-20T09:29:47;13.67;;;4.43;;
3967;SDS011;9221;42.646;23.380;2022-12-20T09:32:12;14.20;;;4.77;;
3967;SDS011;9221;42.646;23.380;2022-12-20T09:34:38;11.70;;;4.37;;
3967;SDS011;9221;42.646;23.380;2022-12-20T09:37:04;10.20;;;4.13;;
3967;SDS011;9221;42.646;23.380;2022-12-20T09:39:29;14.53;;;4.47;;
3967;SDS011;9221;42.646;23.380;2022-12-20T09:41:55;11.77;;;4.57;;
3967;SDS011;9221;42.646;23.380;2022-12-20T09:47:00;17.90;;;4.63;;
3967;SDS011;9221;42.646;23.380;2022-12-20T09:49:30;12.00;;;4.20;;
3967;SDS011;9221;42.646;23.380;2022-12-20T10:00:11;14.20;;;3.80;;
3967;SDS011;9221;42.646;23.380;2022-12-20T10:02:41;9.27;;;3.77;;
3967;SDS011;9221;42.646;23.380;2022-12-20T10:05:14;7.93;;;3.23;;
3967;SDS011;9221;42.646;23.380;2022-12-20T10:12:56;11.80;;;3.50;;
3967;SDS011;9221;42.646;23.380;2022-12-20T10:15:39;14.87;;;3.83;;
3967;SDS011;9221;42.646;23.380;2022-12-20T10:21:28;14.57;;;4.17;;
3967;SDS011;9221;42.646;23.380;2022-12-20T10:24:09;12.33;;;3.60;;
3967;SDS011;9221;42.646;23.380;2022-12-20T10:26:40;11.53;;;3.93;;
3967;SDS011;9221;42.646;23.380;2022-12-20T10:29:06;11.10;;;4.03;;
3967;SDS011;9221;42.646;23.380;2022-12-20T10:31:32;12.33;;;3.60;;
3967;SDS011;9221;42.646;23.380;2022-12-20T10:33:58;14.13;;;3.53;;
3967;SDS011;9221;42.646;23.380;2022-12-20T10:38:52;9.50;;;2.90;;
3967;SDS011;9221;42.646;23.380;2022-12-20T10:41:24;10.30;;;3.57;;
3967;SDS011;9221;42.646;23.380;2022-12-20T10:43:53;8.37;;;2.80;;
3967;SDS011;9221;42.646;23.380;2022-12-20T10:46:20;7.30;;;3.20;;
3967;SDS011;9221;42.646;23.380;2022-12-20T10:48:47;11.13;;;3.67;;
3967;SDS011;9221;42.646;23.380;2022-12-20T10:51:17;13.20;;;3.43;;
3967;SDS011;9221;42.646;23.380;2022-12-20T10:56:25;10.43;;;2.93;;
3967;SDS011;9221;42.646;23.380;2022-12-20T10:58:57;9.90;;;3.60;;
3967;SDS011;9221;42.646;23.380;2022-12-20T11:01:28;18.80;;;3.80;;
3967;SDS011;9221;42.646;23.380;2022-12-20T11:06:44;10.27;;;2.73;;
3967;SDS011;9221;42.646;23.380;2022-12-20T11:09:20;9.43;;;3.63;;
3967;SDS011;9221;42.646;23.380;2022-12-20T11:11:58;7.90;;;2.83;;
3967;SDS011;9221;42.646;23.380;2022-12-20T11:14:25;11.80;;;3.97;;
3967;SDS011;9221;42.646;23.380;2022-12-20T11:16:52;11.37;;;4.10;;
3967;SDS011;9221;42.646;23.380;2022-12-20T11:30:22;8.60;;;3.50;;
3967;SDS011;9221;42.646;23.380;2022-12-20T11:35:36;18.13;;;3.20;;
3967;SDS011;9221;42.646;23.380;2022-12-20T11:41:07;8.37;;;2.80;;
3967;SDS011;9221;42.646;23.380;2022-12-20T11:55:26;10.80;;;3.70;;
3967;SDS011;9221;42.646;23.380;2022-12-20T11:58:01;6.90;;;2.67;;
3967;SDS011;9221;42.646;23.380;2022-12-20T12:00:35;7.03;;;2.57;;
3967;SDS011;9221;42.646;23.380;2022-12-20T12:03:08;8.70;;;2.63;;
3967;SDS011;9221;42.646;23.380;2022-12-20T12:05:46;6.53;;;2.30;;
3967;SDS011;9221;42.646;23.380;2022-12-20T12:08:17;6.80;;;2.53;;
3967;SDS011;9221;42.646;23.380;2022-12-20T12:10:55;7.10;;;2.53;;
3967;SDS011;9221;42.646;23.380;2022-12-20T12:13:26;5.90;;;2.37;;
3967;SDS011;9221;42.646;23.380;2022-12-20T12:18:24;6.33;;;2.50;;
3967;SDS011;9221;42.646;23.380;2022-12-20T12:23:48;5.00;;;1.83;;
3967;SDS011;9221;42.646;23.380;2022-12-20T12:26:28;4.70;;;2.40;;
3967;SDS011;9221;42.646;23.380;2022-12-20T12:29:03;7.30;;;2.20;;
3967;SDS011;9221;42.646;23.380;2022-12-20T12:31:58;7.73;;;1.90;;
3967;SDS011;9221;42.646;23.380;2022-12-20T12:40:24;5.87;;;2.07;;
3967;SDS011;9221;42.646;23.380;2022-12-20T12:43:08;6.20;;;2.70;;
3967;SDS011;9221;42.646;23.380;2022-12-20T12:45:51;7.80;;;2.70;;
3967;SDS011;9221;42.646;23.380;2022-12-20T12:50:50;8.50;;;2.00;;
3967;SDS011;9221;42.646;23.380;2022-12-20T12:55:51;8.80;;;2.40;;
3967;SDS011;9221;42.646;23.380;2022-12-20T13:03:14;5.50;;;2.30;;
3967;SDS011;9221;42.646;23.380;2022-12-20T13:05:40;5.60;;;2.40;;
3967;SDS011;9221;42.646;23.380;2022-12-20T13:08:14;8.90;;;2.67;;
3967;SDS011;9221;42.646;23.380;2022-12-20T13:13:17;5.37;;;2.20;;
3967;SDS011;9221;42.646;23.380;2022-12-20T13:15:50;6.10;;;1.97;;
3967;SDS011;9221;42.646;23.380;2022-12-20T13:18:20;6.80;;;2.30;;
3967;SDS011;9221;42.646;23.380;2022-12-20T13:23:42;5.77;;;2.20;;
3967;SDS011;9221;42.646;23.380;2022-12-20T13:29:34;6.73;;;2.00;;
3967;SDS011;9221;42.646;23.380;2022-12-20T13:32:00;10.27;;;3.17;;
3967;SDS011;9221;42.646;23.380;2022-12-20T13:37:22;5.67;;;2.20;;
3967;SDS011;9221;42.646;23.380;2022-12-20T13:40:13;16.73;;;2.37;;
3967;SDS011;9221;42.646;23.380;2022-12-20T13:42:46;4.60;;;1.70;;
3967;SDS011;9221;42.646;23.380;2022-12-20T13:45:15;7.73;;;2.27;;
3967;SDS011;9221;42.646;23.380;2022-12-20T13:47:43;6.60;;;2.30;;
3967;SDS011;9221;42.646;23.380;2022-12-20T13:52:51;3.40;;;1.67;;
3967;SDS011;9221;42.646;23.380;2022-12-20T13:55:32;5.23;;;1.63;;
3967;SDS011;9221;42.646;23.380;2022-12-20T13:58:20;14.80;;;2.60;;
3967;SDS011;9221;42.646;23.380;2022-12-20T14:00:48;2.97;;;1.40;;
3967;SDS011;9221;42.646;23.380;2022-12-20T14:03:18;7.83;;;2.70;;
3967;SDS011;9221;42.646;23.380;2022-12-20T14:05:46;5.60;;;1.80;;
3967;SDS011;9221;42.646;23.380;2022-12-20T14:08:16;7.07;;;3.07;;
3967;SDS011;9221;42.646;23.380;2022-12-20T14:10:44;5.07;;;2.00;;
3967;SDS011;9221;42.646;23.380;2022-12-20T14:13:20;6.97;;;2.83;;
3967;SDS011;9221;42.646;23.380;2022-12-20T14:15:51;9.30;;;3.20;;
3967;SDS011;9221;42.646;23.380;2022-12-20T14:18:21;8.57;;;2.70;;
3967;SDS011;9221;42.646;23.380;2022-12-20T14:23:22;6.83;;;2.60;;
3967;SDS011;9221;42.646;23.380;2022-12-20T14:25:52;8.53;;;2.30;;
3967;SDS011;9221;42.646;23.380;2022-12-20T14:30:58;7.97;;;2.40;;
3967;SDS011;9221;42.646;23.380;2022-12-20T14:33:35;15.13;;;1.97;;
3967;SDS011;9221;42.646;23.380;2022-12-20T14:38:40;14.03;;;4.57;;
3967;SDS011;9221;42.646;23.380;2022-12-20T14:43:54;15.43;;;3.90;;
3967;SDS011;9221;42.646;23.380;2022-12-20T14:46:26;10.00;;;3.20;;
3967;SDS011;9221;42.646;23.380;2022-12-20T14:49:10;16.30;;;3.60;;
3967;SDS011;9221;42.646;23.380;2022-12-20T14:51:40;8.37;;;3.50;;
3967;SDS011;9221;42.646;23.380;2022-12-20T14:54:10;12.17;;;3.30;;
3967;SDS011;9221;42.646;23.380;2022-12-20T14:56:47;5.67;;;2.87;;
3967;SDS011;9221;42.646;23.380;2022-12-20T14:59:19;7.50;;;3.00;;
3967;SDS011;9221;42.646;23.380;2022-12-20T15:01:50;12.93;;;2.80;;
3967;SDS011;9221;42.646;23.380;2022-12-20T15:04:23;8.80;;;3.10;;
3967;SDS011;9221;42.646;23.380;2022-12-20T15:06:58;10.93;;;3.53;;
3967;SDS011;9221;42.646;23.380;2022-12-20T15:09:27;12.03;;;3.10;;
3967;SDS011;9221;42.646;23.380;2022-12-20T15:11:53;17.23;;;3.80;;
3967;SDS011;9221;42.646;23.380;2022-12-20T15:14:31;9.37;;;3.20;;
3967;SDS011;9221;42.646;23.380;2022-12-20T15:17:00;8.00;;;2.83;;
3967;SDS011;9221;42.646;23.380;2022-12-20T15:19:28;8.20;;;3.40;;
3967;SDS011;9221;42.646;23.380;2022-12-20T15:21:55;13.70;;;3.63;;
3967;SDS011;9221;42.646;23.380;2022-12-20T15:24:22;7.17;;;3.13;;
3967;SDS011;9221;42.646;23.380;2022-12-20T15:26:50;17.90;;;4.30;;
3967;SDS011;9221;42.646;23.380;2022-12-20T15:29:17;11.33;;;2.87;;
3967;SDS011;9221;42.646;23.380;2022-12-20T15:31:44;8.43;;;3.13;;
3967;SDS011;9221;42.646;23.380;2022-12-20T15:34:17;10.80;;;3.20;;
3967;SDS011;9221;42.646;23.380;2022-12-20T15:36:46;8.50;;;3.97;;
3967;SDS011;9221;42.646;23.380;2022-12-20T15:39:12;10.20;;;3.13;;
3967;SDS011;9221;42.646;23.380;2022-12-20T15:41:39;9.93;;;2.70;;
3967;SDS011;9221;42.646;23.380;2022-12-20T15:44:10;8.87;;;3.10;;
3967;SDS011;9221;42.646;23.380;2022-12-20T15:46:47;11.90;;;2.97;;
3967;SDS011;9221;42.646;23.380;2022-12-20T15:49:16;8.20;;;2.70;;
3967;SDS011;9221;42.646;23.380;2022-12-20T15:51:46;13.67;;;3.43;;
3967;SDS011;9221;42.646;23.380;2022-12-20T15:56:45;19.43;;;3.90;;
3967;SDS011;9221;42.646;23.380;2022-12-20T15:59:11;11.57;;;3.40;;
3967;SDS011;9221;42.646;23.380;2022-12-20T16:01:36;12.10;;;3.47;;
3967;SDS011;9221;42.646;23.380;2022-12-20T16:04:03;9.97;;;2.60;;
3967;SDS011;9221;42.646;23.380;2022-12-20T16:06:29;11.33;;;4.27;;
3967;SDS011;9221;42.646;23.380;2022-12-20T16:08:54;12.33;;;3.33;;
3967;SDS011;9221;42.646;23.380;2022-12-20T16:11:21;6.77;;;2.90;;
3967;SDS011;9221;42.646;23.380;2022-12-20T16:13:49;7.67;;;2.90;;
3967;SDS011;9221;42.646;23.380;2022-12-20T16:16:22;8.33;;;2.67;;
3967;SDS011;9221;42.646;23.380;2022-12-20T16:18:50;10.17;;;2.97;;
3967;SDS011;9221;42.646;23.380;2022-12-20T16:21:22;10.03;;;2.70;;
3967;SDS011;9221;42.646;23.380;2022-12-20T16:23:49;4.53;;;2.00;;
3967;SDS011;9221;42.646;23.380;2022-12-20T16:26:16;6.83;;;2.67;;
3967;SDS011;9221;42.646;23.380;2022-12-20T16:28:46;12.43;;;3.10;;
3967;SDS011;9221;42.646;23.380;2022-12-20T16:31:30;6.43;;;2.53;;
3967;SDS011;9221;42.646;23.380;2022-12-20T16:33:58;9.30;;;2.37;;
3967;SDS011;9221;42.646;23.380;2022-12-20T16:36:26;6.10;;;2.00;;
3967;SDS011;9221;42.646;23.380;2022-12-20T16:38:53;5.43;;;1.77;;
3967;SDS011;9221;42.646;23.380;2022-12-20T16:41:24;6.20;;;2.10;;
3967;SDS011;9221;42.646;23.380;2022-12-20T16:43:54;5.83;;;2.40;;
3967;SDS011;9221;42.646;23.380;2022-12-20T16:46:21;6.20;;;1.93;;
3967;SDS011;9221;42.646;23.380;2022-12-20T16:48:50;7.60;;;2.10;;
3967;SDS011;9221;42.646;23.380;2022-12-20T16:51:24;3.73;;;1.70;;
3967;SDS011;9221;42.646;23.380;2022-12-20T16:53:53;14.10;;;2.20;;